sensor_id;sensor_type;location;lat;lon;timestamp;temperature;humidity
76168;DHT22;64927;48.214;16.378;2022-11-23T00:03:38;6.90;78.30
76168;DHT22;64927;48.214;16.378;2022-11-23T00:06:03;6.90;78.20
76168;DHT22;64927;48.214;16.378;2022-11-23T00:08:29;6.90;78.80
76168;DHT22;64927;48.214;16.378;2022-11-23T00:10:57;7.00;78.40
76168;DHT22;64927;48.214;16.378;2022-11-23T00:13:23;6.90;78.30
76168;DHT22;64927;48.214;16.378;2022-11-23T00:15:49;7.00;78.40
76168;DHT22;64927;48.214;16.378;2022-11-23T00:18:15;7.00;78.40
76168;DHT22;64927;48.214;16.378;2022-11-23T00:20:40;7.10;78.20
76168;DHT22;64927;48.214;16.378;2022-11-23T00:23:08;7.10;77.80
76168;DHT22;64927;48.214;16.378;2022-11-23T00:25:34;7.00;77.70
76168;DHT22;64927;48.214;16.378;2022-11-23T00:28:00;7.00;78.20
76168;DHT22;64927;48.214;16.378;2022-11-23T00:30:26;6.80;77.80
76168;DHT22;64927;48.214;16.378;2022-11-23T00:32:53;6.90;78.40
76168;DHT22;64927;48.214;16.378;2022-11-23T00:35:20;6.90;78.10
76168;DHT22;64927;48.214;16.378;2022-11-23T00:37:46;6.90;77.70
76168;DHT22;64927;48.214;16.378;2022-11-23T00:40:11;6.90;78.10
76168;DHT22;64927;48.214;16.378;2022-11-23T00:42:37;7.00;77.60
76168;DHT22;64927;48.214;16.378;2022-11-23T00:45:03;7.00;77.90
76168;DHT22;64927;48.214;16.378;2022-11-23T00:47:31;7.00;77.90
76168;DHT22;64927;48.214;16.378;2022-11-23T00:49:57;7.00;78.10
76168;DHT22;64927;48.214;16.378;2022-11-23T00:52:22;7.00;78.20
76168;DHT22;64927;48.214;16.378;2022-11-23T00:54:48;6.90;77.90
76168;DHT22;64927;48.214;16.378;2022-11-23T00:57:14;6.90;78.40
76168;DHT22;64927;48.214;16.378;2022-11-23T00:59:39;6.90;78.60
76168;DHT22;64927;48.214;16.378;2022-11-23T01:02:05;7.00;78.70
76168;DHT22;64927;48.214;16.378;2022-11-23T01:04:31;6.90;78.20
76168;DHT22;64927;48.214;16.378;2022-11-23T01:06:56;6.80;78.90
76168;DHT22;64927;48.214;16.378;2022-11-23T01:09:22;6.90;79.10
76168;DHT22;64927;48.214;16.378;2022-11-23T01:11:51;6.90;78.90
76168;DHT22;64927;48.214;16.378;2022-11-23T01:14:18;6.90;78.90
76168;DHT22;64927;48.214;16.378;2022-11-23T01:16:46;6.90;79.00
76168;DHT22;64927;48.214;16.378;2022-11-23T01:19:17;6.80;79.20
76168;DHT22;64927;48.214;16.378;2022-11-23T01:21:44;6.90;79.40
76168;DHT22;64927;48.214;16.378;2022-11-23T01:24:20;6.90;79.50
76168;DHT22;64927;48.214;16.378;2022-11-23T01:26:50;6.90;79.40
76168;DHT22;64927;48.214;16.378;2022-11-23T01:29:17;6.80;79.60
76168;DHT22;64927;48.214;16.378;2022-11-23T01:31:43;6.80;79.60
76168;DHT22;64927;48.214;16.378;2022-11-23T01:34:11;6.70;79.40
76168;DHT22;64927;48.214;16.378;2022-11-23T01:36:36;6.60;79.20
76168;DHT22;64927;48.214;16.378;2022-11-23T01:39:03;6.60;79.60
76168;DHT22;64927;48.214;16.378;2022-11-23T01:41:33;6.60;79.80
76168;DHT22;64927;48.214;16.378;2022-11-23T01:46:45;6.60;79.30
76168;DHT22;64927;48.214;16.378;2022-11-23T01:49:11;6.60;79.50
76168;DHT22;64927;48.214;16.378;2022-11-23T01:51:43;6.60;79.40
76168;DHT22;64927;48.214;16.378;2022-11-23T01:54:17;6.60;79.40
76168;DHT22;64927;48.214;16.378;2022-11-23T01:56:51;6.80;79.80
76168;DHT22;64927;48.214;16.378;2022-11-23T01:59:18;6.90;79.40
76168;DHT22;64927;48.214;16.378;2022-11-23T02:01:44;7.00;79.50
76168;DHT22;64927;48.214;16.378;2022-11-23T02:04:26;7.10;78.60
76168;DHT22;64927;48.214;16.378;2022-11-23T02:06:54;7.20;78.40
76168;DHT22;64927;48.214;16.378;2022-11-23T02:09:21;7.30;78.30
76168;DHT22;64927;48.214;16.378;2022-11-23T02:11:47;7.30;77.80
76168;DHT22;64927;48.214;16.378;2022-11-23T02:14:13;7.10;77.50
76168;DHT22;64927;48.214;16.378;2022-11-23T02:16:39;7.00;77.80
76168;DHT22;64927;48.214;16.378;2022-11-23T02:21:59;7.10;77.70
76168;DHT22;64927;48.214;16.378;2022-11-23T02:24:29;7.10;77.90
76168;DHT22;64927;48.214;16.378;2022-11-23T02:26:59;7.10;77.70
76168;DHT22;64927;48.214;16.378;2022-11-23T02:29:27;7.20;77.80
76168;DHT22;64927;48.214;16.378;2022-11-23T02:31:54;7.20;77.80
76168;DHT22;64927;48.214;16.378;2022-11-23T02:34:20;7.30;77.80
76168;DHT22;64927;48.214;16.378;2022-11-23T02:36:48;7.20;77.20
76168;DHT22;64927;48.214;16.378;2022-11-23T02:41:55;7.30;77.10
76168;DHT22;64927;48.214;16.378;2022-11-23T02:47:03;7.30;77.20
76168;DHT22;64927;48.214;16.378;2022-11-23T02:49:29;7.30;77.10
76168;DHT22;64927;48.214;16.378;2022-11-23T02:51:55;7.30;76.80
76168;DHT22;64927;48.214;16.378;2022-11-23T02:54:21;7.30;76.80
76168;DHT22;64927;48.214;16.378;2022-11-23T02:56:46;7.30;77.20
76168;DHT22;64927;48.214;16.378;2022-11-23T02:59:14;7.30;76.60
76168;DHT22;64927;48.214;16.378;2022-11-23T03:01:40;7.30;76.60
76168;DHT22;64927;48.214;16.378;2022-11-23T03:04:06;7.30;76.50
76168;DHT22;64927;48.214;16.378;2022-11-23T03:06:32;7.20;76.60
76168;DHT22;64927;48.214;16.378;2022-11-23T03:09:00;7.20;76.40
76168;DHT22;64927;48.214;16.378;2022-11-23T03:11:26;7.20;76.60
76168;DHT22;64927;48.214;16.378;2022-11-23T03:13:51;7.10;76.70
76168;DHT22;64927;48.214;16.378;2022-11-23T03:16:17;7.10;77.00
76168;DHT22;64927;48.214;16.378;2022-11-23T03:18:45;7.10;76.80
76168;DHT22;64927;48.214;16.378;2022-11-23T03:21:10;7.20;76.70
76168;DHT22;64927;48.214;16.378;2022-11-23T03:23:37;7.10;76.60
76168;DHT22;64927;48.214;16.378;2022-11-23T03:26:02;7.10;77.00
76168;DHT22;64927;48.214;16.378;2022-11-23T03:28:28;7.10;77.10
76168;DHT22;64927;48.214;16.378;2022-11-23T03:30:55;7.00;77.60
76168;DHT22;64927;48.214;16.378;2022-11-23T03:33:21;7.00;77.80
76168;DHT22;64927;48.214;16.378;2022-11-23T03:35:49;7.00;77.70
76168;DHT22;64927;48.214;16.378;2022-11-23T03:38:15;7.00;77.50
76168;DHT22;64927;48.214;16.378;2022-11-23T03:40:45;7.00;77.50
76168;DHT22;64927;48.214;16.378;2022-11-23T03:43:12;6.90;77.60
76168;DHT22;64927;48.214;16.378;2022-11-23T03:45:38;6.90;77.50
76168;DHT22;64927;48.214;16.378;2022-11-23T03:48:04;7.00;77.20
76168;DHT22;64927;48.214;16.378;2022-11-23T03:50:30;6.90;77.10
76168;DHT22;64927;48.214;16.378;2022-11-23T03:52:56;7.00;77.40
76168;DHT22;64927;48.214;16.378;2022-11-23T03:55:22;7.00;77.10
76168;DHT22;64927;48.214;16.378;2022-11-23T03:57:50;7.00;77.10
76168;DHT22;64927;48.214;16.378;2022-11-23T04:00:18;7.00;76.70
76168;DHT22;64927;48.214;16.378;2022-11-23T04:02:43;7.00;76.70
76168;DHT22;64927;48.214;16.378;2022-11-23T04:05:09;7.00;76.90
76168;DHT22;64927;48.214;16.378;2022-11-23T04:07:35;7.00;76.90
76168;DHT22;64927;48.214;16.378;2022-11-23T04:10:00;7.00;77.10
76168;DHT22;64927;48.214;16.378;2022-11-23T04:12:26;7.00;77.10
76168;DHT22;64927;48.214;16.378;2022-11-23T04:14:54;7.00;77.20
76168;DHT22;64927;48.214;16.378;2022-11-23T04:17:19;7.00;77.20
76168;DHT22;64927;48.214;16.378;2022-11-23T04:19:45;7.00;77.10
76168;DHT22;64927;48.214;16.378;2022-11-23T04:22:10;7.00;77.20
76168;DHT22;64927;48.214;16.378;2022-11-23T04:24:38;6.90;76.80
76168;DHT22;64927;48.214;16.378;2022-11-23T04:27:06;6.90;77.80
76168;DHT22;64927;48.214;16.378;2022-11-23T04:29:32;7.00;77.50
76168;DHT22;64927;48.214;16.378;2022-11-23T04:31:58;7.00;78.80
76168;DHT22;64927;48.214;16.378;2022-11-23T04:34:23;7.00;77.60
76168;DHT22;64927;48.214;16.378;2022-11-23T04:36:49;7.10;77.50
76168;DHT22;64927;48.214;16.378;2022-11-23T04:39:14;7.10;77.80
76168;DHT22;64927;48.214;16.378;2022-11-23T04:41:40;7.00;77.50
76168;DHT22;64927;48.214;16.378;2022-11-23T04:44:06;6.90;78.10
76168;DHT22;64927;48.214;16.378;2022-11-23T04:46:31;7.00;78.40
76168;DHT22;64927;48.214;16.378;2022-11-23T04:49:02;7.00;78.60
76168;DHT22;64927;48.214;16.378;2022-11-23T04:51:27;6.90;78.60
76168;DHT22;64927;48.214;16.378;2022-11-23T04:53:53;7.00;78.40
76168;DHT22;64927;48.214;16.378;2022-11-23T04:56:18;6.90;78.40
76168;DHT22;64927;48.214;16.378;2022-11-23T04:58:44;7.00;78.90
76168;DHT22;64927;48.214;16.378;2022-11-23T05:01:10;6.90;78.80
76168;DHT22;64927;48.214;16.378;2022-11-23T05:03:35;7.00;79.00
76168;DHT22;64927;48.214;16.378;2022-11-23T05:06:02;6.90;78.90
76168;DHT22;64927;48.214;16.378;2022-11-23T05:08:30;6.90;78.80
76168;DHT22;64927;48.214;16.378;2022-11-23T05:10:56;6.90;78.80
76168;DHT22;64927;48.214;16.378;2022-11-23T05:13:22;6.90;79.00
76168;DHT22;64927;48.214;16.378;2022-11-23T05:15:48;6.90;79.40
76168;DHT22;64927;48.214;16.378;2022-11-23T05:18:14;7.00;78.90
76168;DHT22;64927;48.214;16.378;2022-11-23T05:20:40;6.90;78.90
76168;DHT22;64927;48.214;16.378;2022-11-23T05:23:08;6.90;78.90
76168;DHT22;64927;48.214;16.378;2022-11-23T05:25:34;6.90;79.10
76168;DHT22;64927;48.214;16.378;2022-11-23T05:28:00;6.90;78.90
76168;DHT22;64927;48.214;16.378;2022-11-23T05:30:25;6.90;78.30
76168;DHT22;64927;48.214;16.378;2022-11-23T05:32:51;6.90;78.90
76168;DHT22;64927;48.214;16.378;2022-11-23T05:35:17;6.90;78.50
76168;DHT22;64927;48.214;16.378;2022-11-23T05:37:43;6.80;79.00
76168;DHT22;64927;48.214;16.378;2022-11-23T05:40:09;6.80;78.50
76168;DHT22;64927;48.214;16.378;2022-11-23T05:42:36;6.80;78.70
76168;DHT22;64927;48.214;16.378;2022-11-23T05:45:01;6.90;78.90
76168;DHT22;64927;48.214;16.378;2022-11-23T05:47:29;6.80;78.50
76168;DHT22;64927;48.214;16.378;2022-11-23T05:49:55;6.80;78.70
76168;DHT22;64927;48.214;16.378;2022-11-23T05:52:24;6.90;78.70
76168;DHT22;64927;48.214;16.378;2022-11-23T05:54:50;6.80;78.90
76168;DHT22;64927;48.214;16.378;2022-11-23T05:57:15;6.80;79.20
76168;DHT22;64927;48.214;16.378;2022-11-23T05:59:44;6.70;79.10
76168;DHT22;64927;48.214;16.378;2022-11-23T06:02:10;6.80;79.20
76168;DHT22;64927;48.214;16.378;2022-11-23T06:04:36;6.80;80.50
76168;DHT22;64927;48.214;16.378;2022-11-23T06:07:02;6.70;79.60
76168;DHT22;64927;48.214;16.378;2022-11-23T06:09:27;6.80;79.50
76168;DHT22;64927;48.214;16.378;2022-11-23T06:11:53;6.80;79.40
76168;DHT22;64927;48.214;16.378;2022-11-23T06:14:19;6.80;79.50
76168;DHT22;64927;48.214;16.378;2022-11-23T06:16:45;6.80;79.60
76168;DHT22;64927;48.214;16.378;2022-11-23T06:19:11;6.80;79.20
76168;DHT22;64927;48.214;16.378;2022-11-23T06:21:36;6.80;79.40
76168;DHT22;64927;48.214;16.378;2022-11-23T06:24:04;6.80;78.80
76168;DHT22;64927;48.214;16.378;2022-11-23T06:26:30;6.80;79.40
76168;DHT22;64927;48.214;16.378;2022-11-23T06:28:56;6.80;79.30
76168;DHT22;64927;48.214;16.378;2022-11-23T06:31:22;6.80;79.40
76168;DHT22;64927;48.214;16.378;2022-11-23T06:33:51;6.80;78.80
76168;DHT22;64927;48.214;16.378;2022-11-23T06:36:17;6.70;79.00
76168;DHT22;64927;48.214;16.378;2022-11-23T06:38:42;6.70;79.10
76168;DHT22;64927;48.214;16.378;2022-11-23T06:41:08;6.80;79.00
76168;DHT22;64927;48.214;16.378;2022-11-23T06:43:33;6.90;79.50
76168;DHT22;64927;48.214;16.378;2022-11-23T06:46:02;6.90;79.00
76168;DHT22;64927;48.214;16.378;2022-11-23T06:48:29;6.90;79.00
76168;DHT22;64927;48.214;16.378;2022-11-23T06:50:57;6.90;79.00
76168;DHT22;64927;48.214;16.378;2022-11-23T06:53:23;6.90;79.50
76168;DHT22;64927;48.214;16.378;2022-11-23T06:55:48;6.90;79.30
76168;DHT22;64927;48.214;16.378;2022-11-23T06:58:14;7.00;79.60
76168;DHT22;64927;48.214;16.378;2022-11-23T07:00:40;7.00;79.40
76168;DHT22;64927;48.214;16.378;2022-11-23T07:03:05;7.00;79.80
76168;DHT22;64927;48.214;16.378;2022-11-23T07:05:31;7.00;79.30
76168;DHT22;64927;48.214;16.378;2022-11-23T07:07:57;7.10;79.80
76168;DHT22;64927;48.214;16.378;2022-11-23T07:10:22;7.10;79.20
76168;DHT22;64927;48.214;16.378;2022-11-23T07:12:50;7.10;78.90
76168;DHT22;64927;48.214;16.378;2022-11-23T07:15:15;7.10;78.90
76168;DHT22;64927;48.214;16.378;2022-11-23T07:17:41;7.10;79.10
76168;DHT22;64927;48.214;16.378;2022-11-23T07:20:10;7.10;79.10
76168;DHT22;64927;48.214;16.378;2022-11-23T07:22:38;7.00;78.90
76168;DHT22;64927;48.214;16.378;2022-11-23T07:25:05;7.10;79.40
76168;DHT22;64927;48.214;16.378;2022-11-23T07:27:33;7.20;80.10
76168;DHT22;64927;48.214;16.378;2022-11-23T07:30:04;7.30;79.10
76168;DHT22;64927;48.214;16.378;2022-11-23T07:32:29;7.20;78.90
76168;DHT22;64927;48.214;16.378;2022-11-23T07:34:55;7.20;77.90
76168;DHT22;64927;48.214;16.378;2022-11-23T07:37:23;7.20;78.30
76168;DHT22;64927;48.214;16.378;2022-11-23T07:39:48;7.20;77.90
76168;DHT22;64927;48.214;16.378;2022-11-23T07:42:17;7.20;78.10
76168;DHT22;64927;48.214;16.378;2022-11-23T07:44:46;7.10;78.50
76168;DHT22;64927;48.214;16.378;2022-11-23T07:47:12;7.10;78.60
76168;DHT22;64927;48.214;16.378;2022-11-23T07:49:37;7.20;78.80
76168;DHT22;64927;48.214;16.378;2022-11-23T07:52:03;7.20;78.60
76168;DHT22;64927;48.214;16.378;2022-11-23T07:54:31;7.20;77.20
76168;DHT22;64927;48.214;16.378;2022-11-23T07:56:59;7.20;77.70
76168;DHT22;64927;48.214;16.378;2022-11-23T07:59:24;7.20;77.90
76168;DHT22;64927;48.214;16.378;2022-11-23T08:01:50;7.20;78.20
76168;DHT22;64927;48.214;16.378;2022-11-23T08:04:16;7.30;77.70
76168;DHT22;64927;48.214;16.378;2022-11-23T08:06:41;7.40;77.60
76168;DHT22;64927;48.214;16.378;2022-11-23T08:09:07;7.40;77.40
76168;DHT22;64927;48.214;16.378;2022-11-23T08:11:35;7.50;77.90
76168;DHT22;64927;48.214;16.378;2022-11-23T08:14:01;7.50;77.90
76168;DHT22;64927;48.214;16.378;2022-11-23T08:16:26;7.40;77.50
76168;DHT22;64927;48.214;16.378;2022-11-23T08:18:52;7.30;77.40
76168;DHT22;64927;48.214;16.378;2022-11-23T08:21:18;7.30;77.40
76168;DHT22;64927;48.214;16.378;2022-11-23T08:23:43;7.40;77.40
76168;DHT22;64927;48.214;16.378;2022-11-23T08:26:09;7.50;77.40
76168;DHT22;64927;48.214;16.378;2022-11-23T08:28:35;7.50;76.70
76168;DHT22;64927;48.214;16.378;2022-11-23T08:31:07;7.50;76.70
76168;DHT22;64927;48.214;16.378;2022-11-23T08:33:33;7.40;76.60
76168;DHT22;64927;48.214;16.378;2022-11-23T08:36:05;7.40;76.90
76168;DHT22;64927;48.214;16.378;2022-11-23T08:38:32;7.40;76.10
76168;DHT22;64927;48.214;16.378;2022-11-23T08:41:02;7.40;76.70
76168;DHT22;64927;48.214;16.378;2022-11-23T08:43:28;7.60;76.40
76168;DHT22;64927;48.214;16.378;2022-11-23T08:46:00;7.40;75.80
76168;DHT22;64927;48.214;16.378;2022-11-23T08:48:26;7.40;76.70
76168;DHT22;64927;48.214;16.378;2022-11-23T08:50:56;7.50;76.70
76168;DHT22;64927;48.214;16.378;2022-11-23T08:53:25;7.40;75.70
76168;DHT22;64927;48.214;16.378;2022-11-23T08:55:50;7.40;76.60
76168;DHT22;64927;48.214;16.378;2022-11-23T08:58:16;7.30;75.60
76168;DHT22;64927;48.214;16.378;2022-11-23T09:00:42;7.20;76.40
76168;DHT22;64927;48.214;16.378;2022-11-23T09:03:07;7.20;76.40
76168;DHT22;64927;48.214;16.378;2022-11-23T09:05:45;7.20;76.40
76168;DHT22;64927;48.214;16.378;2022-11-23T09:08:12;7.20;76.90
76168;DHT22;64927;48.214;16.378;2022-11-23T09:10:39;7.40;77.20
76168;DHT22;64927;48.214;16.378;2022-11-23T09:13:07;7.50;76.00
76168;DHT22;64927;48.214;16.378;2022-11-23T09:15:34;7.60;75.40
76168;DHT22;64927;48.214;16.378;2022-11-23T09:18:02;7.40;74.90
76168;DHT22;64927;48.214;16.378;2022-11-23T09:20:30;7.40;75.40
76168;DHT22;64927;48.214;16.378;2022-11-23T09:22:56;7.30;75.80
76168;DHT22;64927;48.214;16.378;2022-11-23T09:25:22;7.30;76.30
76168;DHT22;64927;48.214;16.378;2022-11-23T09:27:48;7.40;76.00
76168;DHT22;64927;48.214;16.378;2022-11-23T09:30:19;7.40;75.40
76168;DHT22;64927;48.214;16.378;2022-11-23T09:32:45;7.30;75.20
76168;DHT22;64927;48.214;16.378;2022-11-23T09:35:10;7.40;75.70
76168;DHT22;64927;48.214;16.378;2022-11-23T09:37:36;7.50;75.30
76168;DHT22;64927;48.214;16.378;2022-11-23T09:40:08;7.60;75.70
76168;DHT22;64927;48.214;16.378;2022-11-23T09:45:56;7.80;74.70
76168;DHT22;64927;48.214;16.378;2022-11-23T09:51:21;7.70;74.30
76168;DHT22;64927;48.214;16.378;2022-11-23T09:56:27;7.60;74.90
76168;DHT22;64927;48.214;16.378;2022-11-23T09:58:57;7.70;75.10
76168;DHT22;64927;48.214;16.378;2022-11-23T10:01:23;7.80;74.50
76168;DHT22;64927;48.214;16.378;2022-11-23T10:03:51;7.90;73.80
76168;DHT22;64927;48.214;16.378;2022-11-23T10:06:24;7.90;74.20
76168;DHT22;64927;48.214;16.378;2022-11-23T10:08:56;7.80;74.40
76168;DHT22;64927;48.214;16.378;2022-11-23T10:16:59;7.90;74.00
76168;DHT22;64927;48.214;16.378;2022-11-23T10:24:42;8.10;73.20
76168;DHT22;64927;48.214;16.378;2022-11-23T10:27:23;8.30;73.20
76168;DHT22;64927;48.214;16.378;2022-11-23T10:29:53;8.50;74.20
76168;DHT22;64927;48.214;16.378;2022-11-23T10:33:29;8.70;72.90
76168;DHT22;64927;48.214;16.378;2022-11-23T10:35:28;8.80;71.40
76168;DHT22;64927;48.214;16.378;2022-11-23T10:38:16;9.00;71.40
76168;DHT22;64927;48.214;16.378;2022-11-23T10:41:27;8.90;71.10
76168;DHT22;64927;48.214;16.378;2022-11-23T10:43:48;9.00;71.40
76168;DHT22;64927;48.214;16.378;2022-11-23T10:46:24;9.10;71.90
76168;DHT22;64927;48.214;16.378;2022-11-23T10:48:53;9.00;70.30
76168;DHT22;64927;48.214;16.378;2022-11-23T10:51:33;9.00;71.00
76168;DHT22;64927;48.214;16.378;2022-11-23T10:54:02;9.00;71.00
76168;DHT22;64927;48.214;16.378;2022-11-23T10:56:29;9.00;71.30
76168;DHT22;64927;48.214;16.378;2022-11-23T10:58:55;9.00;70.50
76168;DHT22;64927;48.214;16.378;2022-11-23T11:01:25;8.90;71.00
76168;DHT22;64927;48.214;16.378;2022-11-23T11:03:53;8.90;70.40
76168;DHT22;64927;48.214;16.378;2022-11-23T11:06:29;8.80;71.50
76168;DHT22;64927;48.214;16.378;2022-11-23T11:08:57;8.80;71.80
76168;DHT22;64927;48.214;16.378;2022-11-23T11:11:45;8.80;71.70
76168;DHT22;64927;48.214;16.378;2022-11-23T11:14:20;8.80;70.90
76168;DHT22;64927;48.214;16.378;2022-11-23T11:19:43;8.90;71.20
76168;DHT22;64927;48.214;16.378;2022-11-23T11:22:24;8.90;71.00
76168;DHT22;64927;48.214;16.378;2022-11-23T11:24:51;8.80;71.20
76168;DHT22;64927;48.214;16.378;2022-11-23T11:27:26;8.80;71.70
76168;DHT22;64927;48.214;16.378;2022-11-23T11:29:55;8.80;70.60
76168;DHT22;64927;48.214;16.378;2022-11-23T11:32:44;8.80;71.00
76168;DHT22;64927;48.214;16.378;2022-11-23T11:35:34;8.70;70.40
76168;DHT22;64927;48.214;16.378;2022-11-23T11:40:55;8.80;71.40
76168;DHT22;64927;48.214;16.378;2022-11-23T11:43:48;8.80;70.80
76168;DHT22;64927;48.214;16.378;2022-11-23T11:46:36;8.90;70.20
76168;DHT22;64927;48.214;16.378;2022-11-23T11:49:18;9.00;69.80
76168;DHT22;64927;48.214;16.378;2022-11-23T11:51:50;9.20;69.70
76168;DHT22;64927;48.214;16.378;2022-11-23T11:57:01;9.10;70.00
76168;DHT22;64927;48.214;16.378;2022-11-23T12:02:13;9.30;68.60
76168;DHT22;64927;48.214;16.378;2022-11-23T12:04:49;9.30;68.90
76168;DHT22;64927;48.214;16.378;2022-11-23T12:07:32;9.30;68.60
76168;DHT22;64927;48.214;16.378;2022-11-23T12:13:03;9.40;69.60
76168;DHT22;64927;48.214;16.378;2022-11-23T12:15:36;9.40;68.00
76168;DHT22;64927;48.214;16.378;2022-11-23T12:21:33;9.30;68.10
76168;DHT22;64927;48.214;16.378;2022-11-23T12:24:22;9.30;68.40
76168;DHT22;64927;48.214;16.378;2022-11-23T12:32:24;9.10;68.70
76168;DHT22;64927;48.214;16.378;2022-11-23T12:35:12;9.20;69.10
76168;DHT22;64927;48.214;16.378;2022-11-23T12:41:07;9.00;69.50
76168;DHT22;64927;48.214;16.378;2022-11-23T12:46:46;8.90;69.50
76168;DHT22;64927;48.214;16.378;2022-11-23T12:52:17;8.80;70.30
76168;DHT22;64927;48.214;16.378;2022-11-23T12:57:33;8.80;69.70
76168;DHT22;64927;48.214;16.378;2022-11-23T13:00:13;8.90;69.20
76168;DHT22;64927;48.214;16.378;2022-11-23T13:21:56;8.50;69.80
76168;DHT22;64927;48.214;16.378;2022-11-23T13:24:33;8.50;69.30
76168;DHT22;64927;48.214;16.378;2022-11-23T13:42:58;8.80;69.30
76168;DHT22;64927;48.214;16.378;2022-11-23T13:45:26;8.90;68.30
76168;DHT22;64927;48.214;16.378;2022-11-23T13:48:04;8.80;68.50
76168;DHT22;64927;48.214;16.378;2022-11-23T13:50:34;8.80;68.10
76168;DHT22;64927;48.214;16.378;2022-11-23T13:53:02;8.80;68.10
76168;DHT22;64927;48.214;16.378;2022-11-23T13:55:36;8.90;68.00
76168;DHT22;64927;48.214;16.378;2022-11-23T14:00:58;8.90;67.20
76168;DHT22;64927;48.214;16.378;2022-11-23T14:03:46;8.90;67.80
76168;DHT22;64927;48.214;16.378;2022-11-23T14:15:06;8.80;67.60
76168;DHT22;64927;48.214;16.378;2022-11-23T14:18:27;8.80;67.90
76168;DHT22;64927;48.214;16.378;2022-11-23T14:21:15;8.80;68.20
76168;DHT22;64927;48.214;16.378;2022-11-23T14:24:31;8.80;68.10
76168;DHT22;64927;48.214;16.378;2022-11-23T14:27:06;8.80;68.10
76168;DHT22;64927;48.214;16.378;2022-11-23T14:30:03;8.80;68.40
76168;DHT22;64927;48.214;16.378;2022-11-23T14:33:04;8.80;68.40
76168;DHT22;64927;48.214;16.378;2022-11-23T14:35:48;8.80;68.60
76168;DHT22;64927;48.214;16.378;2022-11-23T14:41:19;8.80;68.30
76168;DHT22;64927;48.214;16.378;2022-11-23T14:43:48;8.70;68.70
76168;DHT22;64927;48.214;16.378;2022-11-23T14:46:17;8.70;68.50
76168;DHT22;64927;48.214;16.378;2022-11-23T14:48:44;8.70;68.50
76168;DHT22;64927;48.214;16.378;2022-11-23T14:51:16;8.70;68.50
76168;DHT22;64927;48.214;16.378;2022-11-23T14:53:46;8.80;68.60
76168;DHT22;64927;48.214;16.378;2022-11-23T14:56:34;8.70;69.00
76168;DHT22;64927;48.214;16.378;2022-11-23T15:01:55;8.80;68.80
76168;DHT22;64927;48.214;16.378;2022-11-23T15:04:26;8.80;69.10
76168;DHT22;64927;48.214;16.378;2022-11-23T15:07:09;8.90;68.90
76168;DHT22;64927;48.214;16.378;2022-11-23T15:09:52;8.90;68.40
76168;DHT22;64927;48.214;16.378;2022-11-23T15:12:43;8.90;68.40
76168;DHT22;64927;48.214;16.378;2022-11-23T15:15:35;8.80;68.50
76168;DHT22;64927;48.214;16.378;2022-11-23T15:18:03;8.80;68.90
76168;DHT22;64927;48.214;16.378;2022-11-23T15:20:32;8.80;68.90
76168;DHT22;64927;48.214;16.378;2022-11-23T15:23:02;8.90;68.70
76168;DHT22;64927;48.214;16.378;2022-11-23T15:25:29;8.90;68.50
76168;DHT22;64927;48.214;16.378;2022-11-23T15:27:56;8.80;68.30
76168;DHT22;64927;48.214;16.378;2022-11-23T15:30:29;8.80;68.60
76168;DHT22;64927;48.214;16.378;2022-11-23T15:32:57;8.80;69.00
76168;DHT22;64927;48.214;16.378;2022-11-23T15:35:29;8.80;68.70
76168;DHT22;64927;48.214;16.378;2022-11-23T15:37:59;8.80;68.80
76168;DHT22;64927;48.214;16.378;2022-11-23T15:40:29;8.80;68.50
76168;DHT22;64927;48.214;16.378;2022-11-23T15:42:58;8.80;68.90
76168;DHT22;64927;48.214;16.378;2022-11-23T15:48:16;8.70;68.80
76168;DHT22;64927;48.214;16.378;2022-11-23T15:53:23;8.70;69.40
76168;DHT22;64927;48.214;16.378;2022-11-23T15:55:49;8.70;69.50
76168;DHT22;64927;48.214;16.378;2022-11-23T15:58:17;8.70;69.30
76168;DHT22;64927;48.214;16.378;2022-11-23T16:01:11;8.70;69.30
76168;DHT22;64927;48.214;16.378;2022-11-23T16:03:48;8.70;69.30
76168;DHT22;64927;48.214;16.378;2022-11-23T16:06:40;8.70;69.60
76168;DHT22;64927;48.214;16.378;2022-11-23T16:12:18;8.60;69.80
76168;DHT22;64927;48.214;16.378;2022-11-23T16:14:46;8.60;69.90
76168;DHT22;64927;48.214;16.378;2022-11-23T16:17:22;8.60;69.90
76168;DHT22;64927;48.214;16.378;2022-11-23T16:19:52;8.60;70.30
76168;DHT22;64927;48.214;16.378;2022-11-23T16:22:30;8.60;70.20
76168;DHT22;64927;48.214;16.378;2022-11-23T16:25:01;8.60;70.20
76168;DHT22;64927;48.214;16.378;2022-11-23T16:27:27;8.50;70.20
76168;DHT22;64927;48.214;16.378;2022-11-23T16:29:53;8.60;70.30
76168;DHT22;64927;48.214;16.378;2022-11-23T16:32:27;8.50;70.40
76168;DHT22;64927;48.214;16.378;2022-11-23T16:34:54;8.60;70.50
76168;DHT22;64927;48.214;16.378;2022-11-23T16:37:22;8.50;70.50
76168;DHT22;64927;48.214;16.378;2022-11-23T16:39:50;8.50;70.70
76168;DHT22;64927;48.214;16.378;2022-11-23T16:42:16;8.50;70.70
76168;DHT22;64927;48.214;16.378;2022-11-23T16:44:42;8.60;70.30
76168;DHT22;64927;48.214;16.378;2022-11-23T16:47:25;8.60;70.40
76168;DHT22;64927;48.214;16.378;2022-11-23T16:49:53;8.70;70.10
76168;DHT22;64927;48.214;16.378;2022-11-23T16:52:20;8.70;70.10
76168;DHT22;64927;48.214;16.378;2022-11-23T16:54:47;8.70;70.20
76168;DHT22;64927;48.214;16.378;2022-11-23T16:57:42;8.70;69.90
76168;DHT22;64927;48.214;16.378;2022-11-23T17:00:26;8.70;69.90
76168;DHT22;64927;48.214;16.378;2022-11-23T17:02:52;8.70;69.70
76168;DHT22;64927;48.214;16.378;2022-11-23T17:05:21;8.60;70.00
76168;DHT22;64927;48.214;16.378;2022-11-23T17:08:07;8.70;70.00
76168;DHT22;64927;48.214;16.378;2022-11-23T17:10:36;8.70;70.20
76168;DHT22;64927;48.214;16.378;2022-11-23T17:13:02;8.70;69.90
76168;DHT22;64927;48.214;16.378;2022-11-23T17:15:28;8.70;69.90
76168;DHT22;64927;48.214;16.378;2022-11-23T17:17:55;8.70;70.00
76168;DHT22;64927;48.214;16.378;2022-11-23T17:20:24;8.60;70.20
76168;DHT22;64927;48.214;16.378;2022-11-23T17:22:50;8.60;70.30
76168;DHT22;64927;48.214;16.378;2022-11-23T17:25:16;8.60;70.20
76168;DHT22;64927;48.214;16.378;2022-11-23T17:27:45;8.50;70.50
76168;DHT22;64927;48.214;16.378;2022-11-23T17:30:18;8.50;70.70
76168;DHT22;64927;48.214;16.378;2022-11-23T17:32:52;8.60;70.90
76168;DHT22;64927;48.214;16.378;2022-11-23T17:35:18;8.50;70.80
76168;DHT22;64927;48.214;16.378;2022-11-23T17:37:46;8.50;70.90
76168;DHT22;64927;48.214;16.378;2022-11-23T17:40:19;8.50;71.00
76168;DHT22;64927;48.214;16.378;2022-11-23T17:42:49;8.60;70.90
76168;DHT22;64927;48.214;16.378;2022-11-23T17:45:15;8.70;71.00
76168;DHT22;64927;48.214;16.378;2022-11-23T17:47:43;8.60;70.40
76168;DHT22;64927;48.214;16.378;2022-11-23T17:50:12;8.60;70.30
76168;DHT22;64927;48.214;16.378;2022-11-23T17:52:38;8.60;70.10
76168;DHT22;64927;48.214;16.378;2022-11-23T17:55:10;8.60;70.30